Terminal Aerodrome Forecast
Issued by NWS Hastings, NE

Home | Current Version | Previous Version | Text Only | Print | Product List | Glossary On
Versions: 1 2 3 4 5 6 7 8 9 10 11 12 13 14 15 16 17 18 19 20 21 22 23
000
FTUS43 KGID 240523
TAFGRI
TAF
KGRI 240523Z 2406/2506 14009KT P6SM SCT150
     FM241300 15013KT P6SM FEW050 SCT150
     FM241600 16017G24KT P6SM SCT150
     FM250200 16015KT P6SM SCT150=

USA.gov is the U.S. government's official web portal to all federal, state and local government web resources and services.